sensor_id;sensor_type;location;lat;lon;timestamp;temperature;humidity
44190;DHT22;29856;52.144;5.430;2023-12-20T00:00:14;7.80;99.90
44190;DHT22;29856;52.144;5.430;2023-12-20T00:02:39;7.80;99.90
44190;DHT22;29856;52.144;5.430;2023-12-20T00:05:05;7.70;99.90
44190;DHT22;29856;52.144;5.430;2023-12-20T00:07:31;7.70;99.90
44190;DHT22;29856;52.144;5.430;2023-12-20T00:09:56;7.70;99.90
44190;DHT22;29856;52.144;5.430;2023-12-20T00:12:22;7.80;99.90
44190;DHT22;29856;52.144;5.430;2023-12-20T00:14:47;7.70;99.90
44190;DHT22;29856;52.144;5.430;2023-12-20T00:17:13;7.70;99.90
44190;DHT22;29856;52.144;5.430;2023-12-20T00:19:38;7.70;99.90
44190;DHT22;29856;52.144;5.430;2023-12-20T00:22:06;7.70;99.90
44190;DHT22;29856;52.144;5.430;2023-12-20T00:24:32;7.70;99.90
44190;DHT22;29856;52.144;5.430;2023-12-20T00:26:58;7.70;99.90
44190;DHT22;29856;52.144;5.430;2023-12-20T00:29:25;7.70;99.90
44190;DHT22;29856;52.144;5.430;2023-12-20T00:31:51;7.60;99.90
44190;DHT22;29856;52.144;5.430;2023-12-20T00:34:16;7.60;99.90
44190;DHT22;29856;52.144;5.430;2023-12-20T00:36:42;7.60;99.90
44190;DHT22;29856;52.144;5.430;2023-12-20T00:39:07;7.60;99.90
44190;DHT22;29856;52.144;5.430;2023-12-20T00:41:33;7.50;99.90
44190;DHT22;29856;52.144;5.430;2023-12-20T00:43:58;7.50;99.90
44190;DHT22;29856;52.144;5.430;2023-12-20T00:46:24;7.50;99.90
44190;DHT22;29856;52.144;5.430;2023-12-20T00:48:49;7.50;99.90
44190;DHT22;29856;52.144;5.430;2023-12-20T00:51:15;7.50;99.90
44190;DHT22;29856;52.144;5.430;2023-12-20T00:53:40;7.50;99.90
44190;DHT22;29856;52.144;5.430;2023-12-20T00:56:05;7.50;99.90
44190;DHT22;29856;52.144;5.430;2023-12-20T00:58:31;7.40;99.90
44190;DHT22;29856;52.144;5.430;2023-12-20T01:00:56;7.40;99.90
44190;DHT22;29856;52.144;5.430;2023-12-20T01:03:22;7.40;99.90
44190;DHT22;29856;52.144;5.430;2023-12-20T01:05:47;7.40;99.90
44190;DHT22;29856;52.144;5.430;2023-12-20T01:08:13;7.40;99.90
44190;DHT22;29856;52.144;5.430;2023-12-20T01:10:38;7.40;99.90
44190;DHT22;29856;52.144;5.430;2023-12-20T01:13:04;7.40;99.90
44190;DHT22;29856;52.144;5.430;2023-12-20T01:15:29;7.50;99.90
44190;DHT22;29856;52.144;5.430;2023-12-20T01:17:54;7.50;99.90
44190;DHT22;29856;52.144;5.430;2023-12-20T01:20:20;7.50;99.90
44190;DHT22;29856;52.144;5.430;2023-12-20T01:22:45;7.40;99.90
44190;DHT22;29856;52.144;5.430;2023-12-20T01:25:11;7.40;99.90
44190;DHT22;29856;52.144;5.430;2023-12-20T01:27:36;7.40;99.90
44190;DHT22;29856;52.144;5.430;2023-12-20T01:30:02;7.40;99.90
44190;DHT22;29856;52.144;5.430;2023-12-20T01:32:27;7.40;99.90
44190;DHT22;29856;52.144;5.430;2023-12-20T01:34:53;7.50;99.90
44190;DHT22;29856;52.144;5.430;2023-12-20T01:37:18;7.40;99.90
44190;DHT22;29856;52.144;5.430;2023-12-20T01:39:44;7.40;99.90
44190;DHT22;29856;52.144;5.430;2023-12-20T01:42:09;7.40;99.90
44190;DHT22;29856;52.144;5.430;2023-12-20T01:44:35;7.40;99.90
44190;DHT22;29856;52.144;5.430;2023-12-20T01:47:00;7.40;99.90
44190;DHT22;29856;52.144;5.430;2023-12-20T01:49:27;7.50;99.90
44190;DHT22;29856;52.144;5.430;2023-12-20T01:51:53;7.50;99.90
44190;DHT22;29856;52.144;5.430;2023-12-20T01:54:19;7.40;99.90
44190;DHT22;29856;52.144;5.430;2023-12-20T01:56:45;7.40;99.90
44190;DHT22;29856;52.144;5.430;2023-12-20T01:59:11;7.40;99.90
44190;DHT22;29856;52.144;5.430;2023-12-20T02:01:37;7.50;99.90
44190;DHT22;29856;52.144;5.430;2023-12-20T02:04:03;7.40;99.90
44190;DHT22;29856;52.144;5.430;2023-12-20T02:06:30;7.40;99.90
44190;DHT22;29856;52.144;5.430;2023-12-20T02:08:55;7.40;99.90
44190;DHT22;29856;52.144;5.430;2023-12-20T02:11:21;7.40;99.90
44190;DHT22;29856;52.144;5.430;2023-12-20T02:13:47;7.40;99.90
44190;DHT22;29856;52.144;5.430;2023-12-20T02:16:12;7.50;99.90
44190;DHT22;29856;52.144;5.430;2023-12-20T02:18:39;7.50;99.90
44190;DHT22;29856;52.144;5.430;2023-12-20T02:21:05;7.50;99.90
44190;DHT22;29856;52.144;5.430;2023-12-20T02:23:30;7.50;99.90
44190;DHT22;29856;52.144;5.430;2023-12-20T02:25:56;7.50;99.90
44190;DHT22;29856;52.144;5.430;2023-12-20T02:28:21;7.50;99.90
44190;DHT22;29856;52.144;5.430;2023-12-20T02:30:47;7.50;99.90
44190;DHT22;29856;52.144;5.430;2023-12-20T02:33:14;7.60;99.90
44190;DHT22;29856;52.144;5.430;2023-12-20T02:35:40;7.50;99.90
44190;DHT22;29856;52.144;5.430;2023-12-20T02:38:06;7.50;99.90
44190;DHT22;29856;52.144;5.430;2023-12-20T02:40:32;7.50;99.90
44190;DHT22;29856;52.144;5.430;2023-12-20T02:42:57;7.50;99.90
44190;DHT22;29856;52.144;5.430;2023-12-20T02:45:22;7.50;99.90
44190;DHT22;29856;52.144;5.430;2023-12-20T02:47:48;7.50;99.90
44190;DHT22;29856;52.144;5.430;2023-12-20T02:50:13;7.50;99.90
44190;DHT22;29856;52.144;5.430;2023-12-20T02:52:39;7.60;99.90
44190;DHT22;29856;52.144;5.430;2023-12-20T02:55:04;7.60;99.90
44190;DHT22;29856;52.144;5.430;2023-12-20T02:57:30;7.60;99.90
44190;DHT22;29856;52.144;5.430;2023-12-20T02:59:55;7.60;99.90
44190;DHT22;29856;52.144;5.430;2023-12-20T03:02:21;7.60;99.90
44190;DHT22;29856;52.144;5.430;2023-12-20T03:04:46;7.60;99.90
44190;DHT22;29856;52.144;5.430;2023-12-20T03:07:12;7.60;99.90
44190;DHT22;29856;52.144;5.430;2023-12-20T03:09:37;7.70;99.90
44190;DHT22;29856;52.144;5.430;2023-12-20T03:12:03;7.70;99.90
44190;DHT22;29856;52.144;5.430;2023-12-20T03:14:28;7.70;99.90
44190;DHT22;29856;52.144;5.430;2023-12-20T03:16:54;7.70;99.90
44190;DHT22;29856;52.144;5.430;2023-12-20T03:19:19;7.70;99.90
44190;DHT22;29856;52.144;5.430;2023-12-20T03:21:45;7.70;99.90
44190;DHT22;29856;52.144;5.430;2023-12-20T03:24:10;7.70;99.90
44190;DHT22;29856;52.144;5.430;2023-12-20T03:26:36;7.70;99.90
44190;DHT22;29856;52.144;5.430;2023-12-20T03:29:01;7.70;99.90
44190;DHT22;29856;52.144;5.430;2023-12-20T03:31:27;7.70;99.90
44190;DHT22;29856;52.144;5.430;2023-12-20T03:33:52;7.70;99.90
44190;DHT22;29856;52.144;5.430;2023-12-20T03:36:18;7.70;99.90
44190;DHT22;29856;52.144;5.430;2023-12-20T03:38:43;7.70;99.90
44190;DHT22;29856;52.144;5.430;2023-12-20T03:41:08;7.70;99.90
44190;DHT22;29856;52.144;5.430;2023-12-20T03:43:34;7.70;99.90
44190;DHT22;29856;52.144;5.430;2023-12-20T03:45:59;7.70;99.90
44190;DHT22;29856;52.144;5.430;2023-12-20T03:48:25;7.70;99.90
44190;DHT22;29856;52.144;5.430;2023-12-20T03:50:50;7.80;99.90
44190;DHT22;29856;52.144;5.430;2023-12-20T03:53:16;7.70;99.90
44190;DHT22;29856;52.144;5.430;2023-12-20T03:55:41;7.80;99.90
44190;DHT22;29856;52.144;5.430;2023-12-20T03:58:07;7.80;99.90
44190;DHT22;29856;52.144;5.430;2023-12-20T04:00:32;7.80;99.90
44190;DHT22;29856;52.144;5.430;2023-12-20T04:02:58;7.80;99.90
44190;DHT22;29856;52.144;5.430;2023-12-20T04:05:23;7.70;99.90
44190;DHT22;29856;52.144;5.430;2023-12-20T04:07:48;7.70;99.90
44190;DHT22;29856;52.144;5.430;2023-12-20T04:10:14;7.80;99.90
44190;DHT22;29856;52.144;5.430;2023-12-20T04:12:39;7.80;99.90
44190;DHT22;29856;52.144;5.430;2023-12-20T04:15:05;7.80;99.90
44190;DHT22;29856;52.144;5.430;2023-12-20T04:17:30;7.80;99.90
44190;DHT22;29856;52.144;5.430;2023-12-20T04:19:56;7.90;99.90
44190;DHT22;29856;52.144;5.430;2023-12-20T04:22:21;7.80;99.90
44190;DHT22;29856;52.144;5.430;2023-12-20T04:24:47;7.90;99.90
44190;DHT22;29856;52.144;5.430;2023-12-20T04:27:12;7.80;99.90
44190;DHT22;29856;52.144;5.430;2023-12-20T04:29:38;7.90;99.90
44190;DHT22;29856;52.144;5.430;2023-12-20T04:32:04;7.90;99.90
44190;DHT22;29856;52.144;5.430;2023-12-20T04:34:30;7.90;99.90
44190;DHT22;29856;52.144;5.430;2023-12-20T04:36:55;7.90;99.90
44190;DHT22;29856;52.144;5.430;2023-12-20T04:39:21;7.90;99.90
44190;DHT22;29856;52.144;5.430;2023-12-20T04:41:46;7.90;99.90
44190;DHT22;29856;52.144;5.430;2023-12-20T04:44:12;8.00;99.90
44190;DHT22;29856;52.144;5.430;2023-12-20T04:46:37;8.00;99.90
44190;DHT22;29856;52.144;5.430;2023-12-20T04:49:03;8.10;99.90
44190;DHT22;29856;52.144;5.430;2023-12-20T04:51:28;8.00;99.90
44190;DHT22;29856;52.144;5.430;2023-12-20T04:53:54;8.10;99.90
44190;DHT22;29856;52.144;5.430;2023-12-20T04:56:19;8.10;99.90
44190;DHT22;29856;52.144;5.430;2023-12-20T04:58:44;8.10;99.90
44190;DHT22;29856;52.144;5.430;2023-12-20T05:01:10;8.10;99.90
44190;DHT22;29856;52.144;5.430;2023-12-20T05:03:35;8.10;99.90
44190;DHT22;29856;52.144;5.430;2023-12-20T05:06:01;8.20;99.90
44190;DHT22;29856;52.144;5.430;2023-12-20T05:08:27;8.20;99.90
44190;DHT22;29856;52.144;5.430;2023-12-20T05:10:54;8.10;99.90
44190;DHT22;29856;52.144;5.430;2023-12-20T05:13:20;8.20;99.90
44190;DHT22;29856;52.144;5.430;2023-12-20T05:15:45;8.20;99.90
44190;DHT22;29856;52.144;5.430;2023-12-20T05:18:11;8.30;99.90
44190;DHT22;29856;52.144;5.430;2023-12-20T05:20:36;8.20;99.90
44190;DHT22;29856;52.144;5.430;2023-12-20T05:23:01;8.20;99.90
44190;DHT22;29856;52.144;5.430;2023-12-20T05:25:27;8.30;99.90
44190;DHT22;29856;52.144;5.430;2023-12-20T05:27:52;8.30;99.90
44190;DHT22;29856;52.144;5.430;2023-12-20T05:30:18;8.30;99.90
44190;DHT22;29856;52.144;5.430;2023-12-20T05:32:43;8.20;99.90
44190;DHT22;29856;52.144;5.430;2023-12-20T05:35:09;8.20;99.90
44190;DHT22;29856;52.144;5.430;2023-12-20T05:37:34;8.30;99.90
44190;DHT22;29856;52.144;5.430;2023-12-20T05:40:00;8.30;99.90
44190;DHT22;29856;52.144;5.430;2023-12-20T05:42:25;8.30;99.90
44190;DHT22;29856;52.144;5.430;2023-12-20T05:44:51;8.30;99.90
44190;DHT22;29856;52.144;5.430;2023-12-20T05:47:16;8.30;99.90
44190;DHT22;29856;52.144;5.430;2023-12-20T05:49:43;8.30;99.90
44190;DHT22;29856;52.144;5.430;2023-12-20T05:52:09;8.30;99.90
44190;DHT22;29856;52.144;5.430;2023-12-20T05:54:34;8.20;99.90
44190;DHT22;29856;52.144;5.430;2023-12-20T05:57:00;8.20;99.90
44190;DHT22;29856;52.144;5.430;2023-12-20T05:59:25;8.20;99.90
44190;DHT22;29856;52.144;5.430;2023-12-20T06:01:51;8.20;99.90
44190;DHT22;29856;52.144;5.430;2023-12-20T06:04:16;8.30;99.90
44190;DHT22;29856;52.144;5.430;2023-12-20T06:06:42;8.30;99.90
44190;DHT22;29856;52.144;5.430;2023-12-20T06:09:08;8.30;99.90
44190;DHT22;29856;52.144;5.430;2023-12-20T06:11:33;8.30;99.90
44190;DHT22;29856;52.144;5.430;2023-12-20T06:13:59;8.30;99.90
44190;DHT22;29856;52.144;5.430;2023-12-20T06:16:24;8.30;99.90
44190;DHT22;29856;52.144;5.430;2023-12-20T06:18:50;8.30;99.90
44190;DHT22;29856;52.144;5.430;2023-12-20T06:21:15;8.30;99.90
44190;DHT22;29856;52.144;5.430;2023-12-20T06:23:41;8.30;99.90
44190;DHT22;29856;52.144;5.430;2023-12-20T06:26:06;8.30;99.90
44190;DHT22;29856;52.144;5.430;2023-12-20T06:28:32;8.40;99.90
44190;DHT22;29856;52.144;5.430;2023-12-20T06:30:57;8.30;99.90
44190;DHT22;29856;52.144;5.430;2023-12-20T06:33:23;8.40;99.90
44190;DHT22;29856;52.144;5.430;2023-12-20T06:35:49;8.40;99.90
44190;DHT22;29856;52.144;5.430;2023-12-20T06:38:14;8.40;99.90
44190;DHT22;29856;52.144;5.430;2023-12-20T06:40:40;8.40;99.90
44190;DHT22;29856;52.144;5.430;2023-12-20T06:43:05;8.40;99.90
44190;DHT22;29856;52.144;5.430;2023-12-20T06:45:31;8.40;99.90
44190;DHT22;29856;52.144;5.430;2023-12-20T06:47:56;8.40;99.90
44190;DHT22;29856;52.144;5.430;2023-12-20T06:50:22;8.50;99.90
44190;DHT22;29856;52.144;5.430;2023-12-20T06:52:47;8.50;99.90
44190;DHT22;29856;52.144;5.430;2023-12-20T06:55:13;8.40;99.90
44190;DHT22;29856;52.144;5.430;2023-12-20T06:57:38;8.50;99.90
44190;DHT22;29856;52.144;5.430;2023-12-20T07:00:05;8.50;99.90
44190;DHT22;29856;52.144;5.430;2023-12-20T07:02:30;8.50;99.90
44190;DHT22;29856;52.144;5.430;2023-12-20T07:04:56;8.60;99.90
44190;DHT22;29856;52.144;5.430;2023-12-20T07:07:21;8.50;99.90
44190;DHT22;29856;52.144;5.430;2023-12-20T07:09:46;8.50;99.90
44190;DHT22;29856;52.144;5.430;2023-12-20T07:12:12;8.50;99.90
44190;DHT22;29856;52.144;5.430;2023-12-20T07:14:37;8.50;99.90
44190;DHT22;29856;52.144;5.430;2023-12-20T07:17:03;8.60;99.90
44190;DHT22;29856;52.144;5.430;2023-12-20T07:19:28;8.60;99.90
44190;DHT22;29856;52.144;5.430;2023-12-20T07:21:54;8.50;99.90
44190;DHT22;29856;52.144;5.430;2023-12-20T07:24:19;8.60;99.90
44190;DHT22;29856;52.144;5.430;2023-12-20T07:26:45;8.60;99.90
44190;DHT22;29856;52.144;5.430;2023-12-20T07:29:10;8.60;99.90
44190;DHT22;29856;52.144;5.430;2023-12-20T07:31:36;8.60;99.90
44190;DHT22;29856;52.144;5.430;2023-12-20T07:34:01;8.60;99.90
44190;DHT22;29856;52.144;5.430;2023-12-20T07:36:27;8.60;99.90
44190;DHT22;29856;52.144;5.430;2023-12-20T07:38:52;8.60;99.90
44190;DHT22;29856;52.144;5.430;2023-12-20T07:41:18;8.70;99.90
44190;DHT22;29856;52.144;5.430;2023-12-20T07:43:43;8.70;99.90
44190;DHT22;29856;52.144;5.430;2023-12-20T07:46:09;8.60;99.90
44190;DHT22;29856;52.144;5.430;2023-12-20T07:48:37;8.70;99.90
44190;DHT22;29856;52.144;5.430;2023-12-20T07:51:04;8.70;99.90
44190;DHT22;29856;52.144;5.430;2023-12-20T07:53:29;8.70;99.90
44190;DHT22;29856;52.144;5.430;2023-12-20T07:55:55;8.70;99.90
44190;DHT22;29856;52.144;5.430;2023-12-20T07:58:20;8.70;99.90
44190;DHT22;29856;52.144;5.430;2023-12-20T08:00:46;8.70;99.90
44190;DHT22;29856;52.144;5.430;2023-12-20T08:03:11;8.70;99.90
44190;DHT22;29856;52.144;5.430;2023-12-20T08:05:38;8.70;99.90
44190;DHT22;29856;52.144;5.430;2023-12-20T08:08:04;8.70;99.90
44190;DHT22;29856;52.144;5.430;2023-12-20T08:10:29;8.70;99.90
44190;DHT22;29856;52.144;5.430;2023-12-20T08:12:55;8.80;99.90
44190;DHT22;29856;52.144;5.430;2023-12-20T08:15:20;8.80;99.90
44190;DHT22;29856;52.144;5.430;2023-12-20T08:17:46;8.70;99.90
44190;DHT22;29856;52.144;5.430;2023-12-20T08:20:11;8.80;99.90
44190;DHT22;29856;52.144;5.430;2023-12-20T08:22:37;8.80;99.90
44190;DHT22;29856;52.144;5.430;2023-12-20T08:25:02;8.80;99.90
44190;DHT22;29856;52.144;5.430;2023-12-20T08:27:28;8.80;99.90
44190;DHT22;29856;52.144;5.430;2023-12-20T08:29:53;8.80;99.90
44190;DHT22;29856;52.144;5.430;2023-12-20T08:32:19;8.90;99.90
44190;DHT22;29856;52.144;5.430;2023-12-20T08:34:44;8.90;99.90
44190;DHT22;29856;52.144;5.430;2023-12-20T08:37:10;8.80;99.90
44190;DHT22;29856;52.144;5.430;2023-12-20T08:39:35;8.80;99.90
44190;DHT22;29856;52.144;5.430;2023-12-20T08:42:01;8.90;99.90
44190;DHT22;29856;52.144;5.430;2023-12-20T08:44:26;8.90;99.90
44190;DHT22;29856;52.144;5.430;2023-12-20T08:46:52;8.80;99.90
44190;DHT22;29856;52.144;5.430;2023-12-20T08:49:17;8.90;99.90
44190;DHT22;29856;52.144;5.430;2023-12-20T08:51:42;8.90;99.90
44190;DHT22;29856;52.144;5.430;2023-12-20T08:54:09;8.90;99.90
44190;DHT22;29856;52.144;5.430;2023-12-20T08:56:35;8.90;99.90
44190;DHT22;29856;52.144;5.430;2023-12-20T08:59:00;8.90;99.90
44190;DHT22;29856;52.144;5.430;2023-12-20T09:01:26;8.90;99.90
44190;DHT22;29856;52.144;5.430;2023-12-20T09:03:51;8.80;99.90
44190;DHT22;29856;52.144;5.430;2023-12-20T09:06:16;8.80;99.90
44190;DHT22;29856;52.144;5.430;2023-12-20T09:08:42;8.80;99.90
44190;DHT22;29856;52.144;5.430;2023-12-20T09:11:07;8.80;99.90
44190;DHT22;29856;52.144;5.430;2023-12-20T09:13:33;8.80;99.90
44190;DHT22;29856;52.144;5.430;2023-12-20T09:15:58;8.80;99.90
44190;DHT22;29856;52.144;5.430;2023-12-20T09:18:24;8.90;99.90
44190;DHT22;29856;52.144;5.430;2023-12-20T09:20:50;8.80;99.90
44190;DHT22;29856;52.144;5.430;2023-12-20T09:23:15;8.80;99.90
44190;DHT22;29856;52.144;5.430;2023-12-20T09:25:41;8.80;99.90
44190;DHT22;29856;52.144;5.430;2023-12-20T09:28:06;8.80;99.90
44190;DHT22;29856;52.144;5.430;2023-12-20T09:30:32;8.80;99.90
44190;DHT22;29856;52.144;5.430;2023-12-20T09:32:57;8.80;99.90
44190;DHT22;29856;52.144;5.430;2023-12-20T09:35:23;8.80;99.90
44190;DHT22;29856;52.144;5.430;2023-12-20T09:37:49;8.90;99.90
44190;DHT22;29856;52.144;5.430;2023-12-20T09:40:17;9.00;99.90
44190;DHT22;29856;52.144;5.430;2023-12-20T09:42:48;9.00;99.90
44190;DHT22;29856;52.144;5.430;2023-12-20T09:45:19;9.00;99.90
44190;DHT22;29856;52.144;5.430;2023-12-20T09:47:45;9.00;99.90
44190;DHT22;29856;52.144;5.430;2023-12-20T09:50:11;9.10;99.90
44190;DHT22;29856;52.144;5.430;2023-12-20T09:52:39;9.10;99.90
44190;DHT22;29856;52.144;5.430;2023-12-20T09:55:05;9.10;99.90
44190;DHT22;29856;52.144;5.430;2023-12-20T09:57:32;9.20;99.90
44190;DHT22;29856;52.144;5.430;2023-12-20T09:59:58;9.20;99.90
44190;DHT22;29856;52.144;5.430;2023-12-20T10:02:25;9.20;99.90
44190;DHT22;29856;52.144;5.430;2023-12-20T10:04:51;9.20;99.90
44190;DHT22;29856;52.144;5.430;2023-12-20T10:07:16;9.30;99.90
44190;DHT22;29856;52.144;5.430;2023-12-20T10:09:42;9.30;99.90
44190;DHT22;29856;52.144;5.430;2023-12-20T10:12:08;9.30;99.90
44190;DHT22;29856;52.144;5.430;2023-12-20T10:14:33;9.40;99.90
44190;DHT22;29856;52.144;5.430;2023-12-20T10:17:03;9.30;99.90
44190;DHT22;29856;52.144;5.430;2023-12-20T10:19:28;9.40;99.90
44190;DHT22;29856;52.144;5.430;2023-12-20T10:21:54;9.40;99.90
44190;DHT22;29856;52.144;5.430;2023-12-20T10:24:19;9.40;99.90
44190;DHT22;29856;52.144;5.430;2023-12-20T10:26:45;9.50;99.90
44190;DHT22;29856;52.144;5.430;2023-12-20T10:29:10;9.40;99.90
44190;DHT22;29856;52.144;5.430;2023-12-20T10:31:36;9.50;99.90
44190;DHT22;29856;52.144;5.430;2023-12-20T10:34:02;9.50;99.90
44190;DHT22;29856;52.144;5.430;2023-12-20T10:36:30;9.50;99.90
44190;DHT22;29856;52.144;5.430;2023-12-20T10:38:56;9.50;99.90
44190;DHT22;29856;52.144;5.430;2023-12-20T10:41:30;9.60;99.90
44190;DHT22;29856;52.144;5.430;2023-12-20T10:43:58;9.50;99.90
44190;DHT22;29856;52.144;5.430;2023-12-20T10:46:24;9.60;99.90
44190;DHT22;29856;52.144;5.430;2023-12-20T10:48:53;9.60;99.90
44190;DHT22;29856;52.144;5.430;2023-12-20T10:51:18;9.60;99.90
44190;DHT22;29856;52.144;5.430;2023-12-20T10:53:47;9.60;99.90
44190;DHT22;29856;52.144;5.430;2023-12-20T10:56:16;9.60;99.90
44190;DHT22;29856;52.144;5.430;2023-12-20T10:58:42;9.70;99.90
44190;DHT22;29856;52.144;5.430;2023-12-20T11:01:08;9.70;99.90
44190;DHT22;29856;52.144;5.430;2023-12-20T11:03:35;9.70;99.90
44190;DHT22;29856;52.144;5.430;2023-12-20T11:09:04;9.80;99.90
44190;DHT22;29856;52.144;5.430;2023-12-20T11:14:39;9.90;99.90
44190;DHT22;29856;52.144;5.430;2023-12-20T11:17:10;9.90;99.90
44190;DHT22;29856;52.144;5.430;2023-12-20T11:19:38;9.90;99.90
44190;DHT22;29856;52.144;5.430;2023-12-20T11:22:04;9.90;99.90
44190;DHT22;29856;52.144;5.430;2023-12-20T11:24:31;9.90;99.90
44190;DHT22;29856;52.144;5.430;2023-12-20T11:26:56;10.00;99.90
44190;DHT22;29856;52.144;5.430;2023-12-20T11:29:35;9.90;99.90
44190;DHT22;29856;52.144;5.430;2023-12-20T11:32:02;9.90;99.90
44190;DHT22;29856;52.144;5.430;2023-12-20T11:34:31;10.00;99.90
44190;DHT22;29856;52.144;5.430;2023-12-20T11:36:58;10.00;99.90
44190;DHT22;29856;52.144;5.430;2023-12-20T11:39:26;10.10;99.90
44190;DHT22;29856;52.144;5.430;2023-12-20T11:41:51;10.10;99.90
44190;DHT22;29856;52.144;5.430;2023-12-20T11:44:17;10.20;99.90
44190;DHT22;29856;52.144;5.430;2023-12-20T11:46:44;10.00;99.90
44190;DHT22;29856;52.144;5.430;2023-12-20T11:49:09;10.10;99.90
44190;DHT22;29856;52.144;5.430;2023-12-20T11:51:35;10.10;99.90
44190;DHT22;29856;52.144;5.430;2023-12-20T11:54:00;10.20;99.90
44190;DHT22;29856;52.144;5.430;2023-12-20T11:56:26;10.20;99.90
44190;DHT22;29856;52.144;5.430;2023-12-20T11:58:51;10.10;99.90
44190;DHT22;29856;52.144;5.430;2023-12-20T12:01:17;10.10;99.90
44190;DHT22;29856;52.144;5.430;2023-12-20T12:03:44;10.20;99.90
44190;DHT22;29856;52.144;5.430;2023-12-20T12:06:10;10.20;99.90
44190;DHT22;29856;52.144;5.430;2023-12-20T12:08:35;10.20;99.90
44190;DHT22;29856;52.144;5.430;2023-12-20T12:11:01;10.20;99.90
44190;DHT22;29856;52.144;5.430;2023-12-20T12:13:27;10.20;99.90
44190;DHT22;29856;52.144;5.430;2023-12-20T12:15:53;10.10;99.90
44190;DHT22;29856;52.144;5.430;2023-12-20T12:18:19;10.20;99.90
44190;DHT22;29856;52.144;5.430;2023-12-20T12:20:44;10.10;99.90
44190;DHT22;29856;52.144;5.430;2023-12-20T12:23:10;10.10;99.90
44190;DHT22;29856;52.144;5.430;2023-12-20T12:25:36;10.10;99.90
44190;DHT22;29856;52.144;5.430;2023-12-20T12:28:02;10.20;99.90
44190;DHT22;29856;52.144;5.430;2023-12-20T12:30:28;10.20;99.90
44190;DHT22;29856;52.144;5.430;2023-12-20T12:32:55;10.20;99.90
44190;DHT22;29856;52.144;5.430;2023-12-20T12:35:21;10.20;99.90
44190;DHT22;29856;52.144;5.430;2023-12-20T12:37:47;10.20;99.90
44190;DHT22;29856;52.144;5.430;2023-12-20T12:40:16;10.20;99.90
44190;DHT22;29856;52.144;5.430;2023-12-20T12:42:44;10.10;99.90
44190;DHT22;29856;52.144;5.430;2023-12-20T12:45:10;10.10;99.90
44190;DHT22;29856;52.144;5.430;2023-12-20T12:47:36;10.10;99.90
44190;DHT22;29856;52.144;5.430;2023-12-20T12:50:01;10.10;99.90
44190;DHT22;29856;52.144;5.430;2023-12-20T12:52:27;10.20;99.90
44190;DHT22;29856;52.144;5.430;2023-12-20T12:54:53;10.20;99.90
44190;DHT22;29856;52.144;5.430;2023-12-20T12:57:18;10.10;99.90
44190;DHT22;29856;52.144;5.430;2023-12-20T12:59:45;10.20;99.90
44190;DHT22;29856;52.144;5.430;2023-12-20T13:02:10;10.20;99.90
44190;DHT22;29856;52.144;5.430;2023-12-20T13:04:36;10.10;99.90
44190;DHT22;29856;52.144;5.430;2023-12-20T13:07:01;10.20;99.90
44190;DHT22;29856;52.144;5.430;2023-12-20T13:09:27;10.10;99.90
44190;DHT22;29856;52.144;5.430;2023-12-20T13:11:52;10.10;99.90
44190;DHT22;29856;52.144;5.430;2023-12-20T13:14:17;10.10;99.90
44190;DHT22;29856;52.144;5.430;2023-12-20T13:16:43;10.10;99.90
44190;DHT22;29856;52.144;5.430;2023-12-20T13:19:08;10.10;99.90
44190;DHT22;29856;52.144;5.430;2023-12-20T13:21:34;10.10;99.90
44190;DHT22;29856;52.144;5.430;2023-12-20T13:23:59;10.10;99.90
44190;DHT22;29856;52.144;5.430;2023-12-20T13:26:25;10.10;99.90
44190;DHT22;29856;52.144;5.430;2023-12-20T13:28:50;10.10;99.90
44190;DHT22;29856;52.144;5.430;2023-12-20T13:31:16;10.00;99.90
44190;DHT22;29856;52.144;5.430;2023-12-20T13:33:41;10.10;99.90
44190;DHT22;29856;52.144;5.430;2023-12-20T13:36:07;10.10;99.90
44190;DHT22;29856;52.144;5.430;2023-12-20T13:38:32;10.10;99.90
44190;DHT22;29856;52.144;5.430;2023-12-20T13:40:58;10.00;99.90
44190;DHT22;29856;52.144;5.430;2023-12-20T13:43:23;10.10;99.90
44190;DHT22;29856;52.144;5.430;2023-12-20T13:45:49;10.00;99.90
44190;DHT22;29856;52.144;5.430;2023-12-20T13:48:14;10.00;99.90
44190;DHT22;29856;52.144;5.430;2023-12-20T13:50:40;10.10;99.90
44190;DHT22;29856;52.144;5.430;2023-12-20T13:53:05;10.10;99.90
44190;DHT22;29856;52.144;5.430;2023-12-20T13:55:31;10.10;99.90
44190;DHT22;29856;52.144;5.430;2023-12-20T13:57:56;10.10;99.90
44190;DHT22;29856;52.144;5.430;2023-12-20T14:00:23;10.10;99.90
44190;DHT22;29856;52.144;5.430;2023-12-20T14:02:48;10.20;99.90
44190;DHT22;29856;52.144;5.430;2023-12-20T14:05:14;10.20;99.90
44190;DHT22;29856;52.144;5.430;2023-12-20T14:07:39;10.20;99.90
44190;DHT22;29856;52.144;5.430;2023-12-20T14:10:05;10.10;99.90
44190;DHT22;29856;52.144;5.430;2023-12-20T14:12:31;10.10;99.90
44190;DHT22;29856;52.144;5.430;2023-12-20T14:14:56;10.10;99.90
44190;DHT22;29856;52.144;5.430;2023-12-20T14:17:22;10.00;99.90
44190;DHT22;29856;52.144;5.430;2023-12-20T14:19:48;10.00;99.90
44190;DHT22;29856;52.144;5.430;2023-12-20T14:22:13;10.00;99.90
44190;DHT22;29856;52.144;5.430;2023-12-20T14:24:39;10.10;99.90
44190;DHT22;29856;52.144;5.430;2023-12-20T14:27:04;10.10;99.90
44190;DHT22;29856;52.144;5.430;2023-12-20T14:29:30;10.10;99.90
44190;DHT22;29856;52.144;5.430;2023-12-20T14:31:55;10.10;99.90
44190;DHT22;29856;52.144;5.430;2023-12-20T14:34:20;10.10;99.90
44190;DHT22;29856;52.144;5.430;2023-12-20T14:36:46;10.10;99.90
44190;DHT22;29856;52.144;5.430;2023-12-20T14:39:11;10.10;99.90
44190;DHT22;29856;52.144;5.430;2023-12-20T14:41:37;10.10;99.90
44190;DHT22;29856;52.144;5.430;2023-12-20T14:44:02;10.20;99.90
44190;DHT22;29856;52.144;5.430;2023-12-20T14:46:28;10.10;99.90
44190;DHT22;29856;52.144;5.430;2023-12-20T14:48:53;10.20;99.90
44190;DHT22;29856;52.144;5.430;2023-12-20T14:51:19;10.10;99.90
44190;DHT22;29856;52.144;5.430;2023-12-20T14:53:44;10.10;99.90
44190;DHT22;29856;52.144;5.430;2023-12-20T14:56:10;10.10;99.90
44190;DHT22;29856;52.144;5.430;2023-12-20T14:58:35;10.10;99.90
44190;DHT22;29856;52.144;5.430;2023-12-20T15:01:01;10.10;99.90
44190;DHT22;29856;52.144;5.430;2023-12-20T15:03:26;10.10;99.90
44190;DHT22;29856;52.144;5.430;2023-12-20T15:05:52;10.00;99.90
44190;DHT22;29856;52.144;5.430;2023-12-20T15:08:17;10.10;99.90
44190;DHT22;29856;52.144;5.430;2023-12-20T15:10:43;10.10;99.90
44190;DHT22;29856;52.144;5.430;2023-12-20T15:13:08;10.10;99.90
44190;DHT22;29856;52.144;5.430;2023-12-20T15:15:33;10.10;99.90
44190;DHT22;29856;52.144;5.430;2023-12-20T15:18:00;10.00;99.90
44190;DHT22;29856;52.144;5.430;2023-12-20T15:20:25;10.00;99.90
44190;DHT22;29856;52.144;5.430;2023-12-20T15:22:51;10.00;99.90
44190;DHT22;29856;52.144;5.430;2023-12-20T15:25:16;10.00;99.90
44190;DHT22;29856;52.144;5.430;2023-12-20T15:27:42;10.00;99.90
44190;DHT22;29856;52.144;5.430;2023-12-20T15:30:07;10.00;99.90
44190;DHT22;29856;52.144;5.430;2023-12-20T15:32:33;10.00;99.90
44190;DHT22;29856;52.144;5.430;2023-12-20T15:34:58;10.00;99.90
44190;DHT22;29856;52.144;5.430;2023-12-20T15:37:24;10.00;99.90